createdAt,value
2018-11-12T00:01:07.999Z,1.63
2018-11-12T00:03:16.569Z,1.80
2018-11-12T00:05:24.424Z,1.60
2018-11-12T00:07:32.170Z,1.80
2018-11-12T00:09:39.901Z,1.70
2018-11-12T00:11:47.909Z,1.77
2018-11-12T00:13:55.578Z,2.00
2018-11-12T00:16:03.353Z,2.30
2018-11-12T00:18:11.472Z,2.20
2018-11-12T00:20:19.581Z,1.80
2018-11-12T00:22:27.386Z,1.80
2018-11-12T00:24:35.121Z,2.17
2018-11-12T00:26:42.922Z,2.10
2018-11-12T00:28:50.882Z,2.20
2018-11-12T00:30:59.854Z,2.20
2018-11-12T00:33:07.704Z,2.10
2018-11-12T00:35:15.378Z,2.20
2018-11-12T00:37:23.437Z,2.20
2018-11-12T00:39:31.122Z,2.27
2018-11-12T00:41:38.842Z,3.03
2018-11-12T00:43:46.536Z,2.10
2018-11-12T00:45:54.214Z,2.20
2018-11-12T00:48:02.469Z,4.47
2018-11-12T00:50:12.806Z,2.57
2018-11-12T00:52:20.514Z,1.87
2018-11-12T00:54:28.232Z,2.27
2018-11-12T00:56:36.229Z,1.90
2018-11-12T00:58:44.055Z,2.10
2018-11-12T01:00:51.746Z,2.17
2018-11-12T01:03:00.842Z,1.80
2018-11-12T01:05:10.986Z,2.07
2018-11-12T01:07:23.294Z,2.30
2018-11-12T01:09:39.577Z,2.00
2018-11-12T01:11:51.375Z,1.47
2018-11-12T01:13:57.488Z,2.10
2018-11-12T01:16:13.136Z,1.93
2018-11-12T01:18:24.746Z,4.03
2018-11-12T01:20:32.483Z,3.20
2018-11-12T01:22:40.318Z,3.27
2018-11-12T01:24:48.056Z,5.60
2018-11-12T01:26:56.061Z,3.50
2018-11-12T01:29:03.811Z,2.80
2018-11-12T01:31:11.532Z,3.23
2018-11-12T01:33:19.194Z,2.80
2018-11-12T01:35:26.890Z,2.70
2018-11-12T01:37:34.613Z,2.20
2018-11-12T01:39:42.346Z,2.20
2018-11-12T01:41:50.123Z,2.47
2018-11-12T01:43:57.938Z,2.40
2018-11-12T01:46:05.975Z,2.13
2018-11-12T01:48:13.556Z,1.93
2018-11-12T01:50:21.357Z,2.07
2018-11-12T01:52:29.068Z,1.63
2018-11-12T01:54:36.784Z,2.07
2018-11-12T01:56:44.515Z,2.20
2018-11-12T01:58:52.248Z,2.17
2018-11-12T02:00:59.957Z,2.20
2018-11-12T02:03:08.276Z,2.00
2018-11-12T02:05:16.126Z,2.07
2018-11-12T02:07:24.089Z,2.50
2018-11-12T02:09:31.804Z,2.57
2018-11-12T02:11:39.678Z,2.33
2018-11-12T02:13:47.367Z,2.00
2018-11-12T02:15:55.090Z,2.13
2018-11-12T02:18:03.175Z,1.97
2018-11-12T02:20:13.916Z,2.10
2018-11-12T02:22:22.529Z,1.63
2018-11-12T02:24:30.297Z,1.90
2018-11-12T02:26:37.992Z,1.70
2018-11-12T02:28:45.690Z,1.90
2018-11-12T02:30:53.469Z,2.30
2018-11-12T02:33:01.141Z,2.37
2018-11-12T02:35:09.261Z,2.53
2018-11-12T02:37:16.979Z,2.00
2018-11-12T02:39:25.013Z,2.63
2018-11-12T02:41:32.681Z,2.03
2018-11-12T02:43:40.350Z,2.30
2018-11-12T02:45:48.014Z,2.07
2018-11-12T02:47:55.705Z,1.90
2018-11-12T02:50:04.195Z,1.67
2018-11-12T02:52:12.076Z,1.70
2018-11-12T02:54:19.889Z,1.90
2018-11-12T02:56:27.880Z,1.80
2018-11-12T02:58:35.585Z,2.10
2018-11-12T03:00:43.689Z,1.83
2018-11-12T03:02:51.556Z,1.63
2018-11-12T03:04:59.831Z,1.73
2018-11-12T03:07:07.689Z,1.70
2018-11-12T03:09:15.457Z,1.70
2018-11-12T03:11:23.196Z,1.63
2018-11-12T03:13:30.871Z,1.80
2018-11-12T03:15:38.538Z,1.90
2018-11-12T03:17:46.808Z,1.40
2018-11-12T03:19:54.968Z,1.60
2018-11-12T03:22:02.638Z,1.90
2018-11-12T03:24:10.368Z,1.40
2018-11-12T03:26:18.272Z,1.90
2018-11-12T03:28:25.997Z,1.50
2018-11-12T03:30:34.395Z,1.30
2018-11-12T03:32:42.368Z,1.53
2018-11-12T03:34:50.076Z,1.97
2018-11-12T03:36:57.979Z,1.50
2018-11-12T03:39:07.446Z,2.10
2018-11-12T03:41:15.932Z,1.43
2018-11-12T03:43:23.604Z,1.20
2018-11-12T03:45:31.283Z,2.67
2018-11-12T03:47:39.227Z,3.40
2018-11-12T03:49:46.925Z,3.33
2018-11-12T03:51:55.240Z,2.50
2018-11-12T03:54:02.939Z,2.20
2018-11-12T03:56:10.809Z,2.37
2018-11-12T03:58:18.527Z,2.10
2018-11-12T04:00:33.623Z,1.80
2018-11-12T04:02:41.543Z,2.00
2018-11-12T04:04:49.287Z,2.00
2018-11-12T04:06:57.047Z,2.77
2018-11-12T04:09:06.038Z,1.90
2018-11-12T04:11:13.805Z,6.23
2018-11-12T04:13:21.549Z,4.73
2018-11-12T04:15:29.248Z,2.60
2018-11-12T04:17:37.008Z,2.60
2018-11-12T04:19:45.054Z,2.10
2018-11-12T04:21:52.826Z,1.80
2018-11-12T04:24:00.501Z,1.90
2018-11-12T04:26:08.305Z,1.60
2018-11-12T04:28:16.131Z,1.73
2018-11-12T04:30:23.966Z,1.23
2018-11-12T04:32:31.805Z,1.50
2018-11-12T04:34:39.849Z,1.33
2018-11-12T04:36:47.602Z,1.37
2018-11-12T04:38:55.848Z,1.47
2018-11-12T04:41:03.641Z,1.90
2018-11-12T04:43:12.488Z,1.47
2018-11-12T04:45:21.381Z,1.20
2018-11-12T04:47:28.998Z,1.53
2018-11-12T04:49:36.684Z,1.30
2018-11-12T04:51:44.467Z,1.40
2018-11-12T04:53:52.885Z,1.40
2018-11-12T04:56:01.068Z,1.50
2018-11-12T04:58:08.783Z,1.47
2018-11-12T05:00:24.270Z,1.47
2018-11-12T05:02:32.026Z,1.80
2018-11-12T05:04:39.710Z,2.00
2018-11-12T05:06:47.443Z,2.20
2018-11-12T05:08:55.135Z,2.27
2018-11-12T05:11:03.448Z,2.17
2018-11-12T05:13:11.137Z,3.60
2018-11-12T05:15:20.216Z,2.90
2018-11-12T05:17:27.965Z,3.07
2018-11-12T05:19:35.679Z,2.90
2018-11-12T05:21:43.400Z,2.30
2018-11-12T05:23:51.122Z,2.10
2018-11-12T05:25:58.882Z,2.40
2018-11-12T05:28:07.336Z,2.63
2018-11-12T05:30:20.159Z,3.20
2018-11-12T05:32:27.884Z,3.83
2018-11-12T05:34:35.586Z,3.10
2018-11-12T05:36:43.276Z,3.10
2018-11-12T05:38:50.986Z,3.00
2018-11-12T05:41:03.657Z,2.57
2018-11-12T05:43:09.085Z,2.80
2018-11-12T05:45:18.504Z,2.87
2018-11-12T05:47:26.178Z,2.47
2018-11-12T05:49:34.079Z,2.43
2018-11-12T05:51:42.004Z,2.67
2018-11-12T05:53:49.672Z,2.60
2018-11-12T05:55:57.945Z,2.20
2018-11-12T05:58:05.657Z,2.47
2018-11-12T06:00:15.436Z,2.10
2018-11-12T06:02:23.150Z,2.50
2018-11-12T06:04:31.190Z,1.90
2018-11-12T06:06:38.896Z,2.53
2018-11-12T06:08:46.648Z,2.30
2018-11-12T06:10:54.382Z,2.10
2018-11-12T06:13:02.117Z,1.80
2018-11-12T06:15:10.909Z,1.90
2018-11-12T06:17:18.604Z,1.83
2018-11-12T06:19:26.330Z,1.80
2018-11-12T06:21:34.034Z,1.53
2018-11-12T06:23:41.823Z,2.00
2018-11-12T06:25:50.083Z,1.60
2018-11-12T06:27:58.117Z,1.60
2018-11-12T06:30:07.053Z,1.47
2018-11-12T06:32:14.769Z,1.57
2018-11-12T06:34:22.528Z,1.80
2018-11-12T06:36:30.305Z,1.72
2018-11-12T06:38:38.040Z,1.70
2018-11-12T06:40:45.959Z,1.60
2018-11-12T06:42:54.226Z,1.80
2018-11-12T06:45:01.797Z,1.60
2018-11-12T06:47:09.620Z,1.60
2018-11-12T06:49:17.221Z,2.20
2018-11-12T06:51:25.216Z,1.70
2018-11-12T06:53:33.097Z,1.70
2018-11-12T06:55:40.766Z,1.53
2018-11-12T06:57:46.875Z,1.60
2018-11-12T06:59:55.017Z,2.10
2018-11-12T07:02:02.781Z,2.00
2018-11-12T07:04:10.520Z,1.90
2018-11-12T07:06:18.301Z,1.80
2018-11-12T07:08:25.974Z,2.13
2018-11-12T07:10:33.733Z,1.73
2018-11-12T07:13:00.191Z,2.07
2018-11-12T07:15:27.315Z,2.03
2018-11-12T07:17:46.825Z,1.70
2018-11-12T07:20:03.580Z,1.97
2018-11-12T07:22:11.624Z,2.30
2018-11-12T07:24:19.454Z,2.58
2018-11-12T07:26:27.174Z,2.60
2018-11-12T07:28:34.911Z,2.57
2018-11-12T07:30:43.025Z,2.67
2018-11-12T07:32:51.713Z,2.37
2018-11-12T07:34:59.552Z,2.00
2018-11-12T07:37:07.516Z,2.80
2018-11-12T07:39:15.330Z,3.30
2018-11-12T07:41:23.095Z,2.47
2018-11-12T07:43:31.094Z,2.10
2018-11-12T07:45:38.819Z,2.50
2018-11-12T07:47:47.852Z,2.17
2018-11-12T07:49:55.570Z,2.30
2018-11-12T07:52:03.517Z,1.90
2018-11-12T07:54:11.363Z,2.20
2018-11-12T07:56:19.084Z,2.37
2018-11-12T07:58:27.427Z,2.60
2018-11-12T08:00:35.649Z,1.90
2018-11-12T08:02:44.161Z,2.43
2018-11-12T08:04:51.884Z,2.77
2018-11-12T08:06:59.973Z,2.30
2018-11-12T08:09:10.327Z,2.70
2018-11-12T08:11:17.932Z,3.77
2018-11-12T08:13:26.154Z,4.27
2018-11-12T08:15:33.911Z,3.20
2018-11-12T08:17:41.728Z,4.05
2018-11-12T08:19:49.688Z,4.08
2018-11-12T08:21:57.588Z,2.97
2018-11-12T08:24:05.429Z,2.40
2018-11-12T08:26:13.544Z,2.80
2018-11-12T08:28:21.240Z,2.70
2018-11-12T08:30:29.901Z,2.63
2018-11-12T08:32:37.701Z,2.50
2018-11-12T08:34:45.678Z,2.87
2018-11-12T08:36:53.367Z,2.23
2018-11-12T08:39:01.257Z,3.30
2018-11-12T08:41:09.081Z,2.87
2018-11-12T08:43:17.084Z,2.90
2018-11-12T08:45:24.801Z,3.57
2018-11-12T08:47:32.578Z,3.03
2018-11-12T08:49:40.429Z,2.80
2018-11-12T08:51:48.017Z,2.93
2018-11-12T08:53:55.694Z,2.53
2018-11-12T08:56:03.524Z,2.02
2018-11-12T08:58:11.902Z,2.10
2018-11-12T09:00:21.851Z,2.60
2018-11-12T09:02:29.608Z,2.50
2018-11-12T09:04:37.451Z,2.80
2018-11-12T09:06:45.049Z,3.43
2018-11-12T09:08:52.854Z,3.80
2018-11-12T09:11:10.342Z,3.03
2018-11-12T09:13:18.408Z,3.00
2018-11-12T09:15:26.824Z,3.13
2018-11-12T09:17:34.569Z,2.83
2018-11-12T09:19:42.413Z,3.43
2018-11-12T09:21:50.152Z,3.10
2018-11-12T09:23:58.041Z,2.90
2018-11-12T09:26:05.819Z,2.33
2018-11-12T09:28:15.879Z,3.23
2018-11-12T09:30:30.741Z,2.43
2018-11-12T09:32:39.347Z,2.70
2018-11-12T09:34:49.036Z,3.10
2018-11-12T09:36:56.790Z,2.70
2018-11-12T09:39:05.675Z,3.10
2018-11-12T09:41:13.720Z,3.10
2018-11-12T09:43:21.487Z,2.70
2018-11-12T09:45:29.266Z,2.43
2018-11-12T09:47:37.059Z,3.70
2018-11-12T09:49:45.369Z,4.80
2018-11-12T09:51:53.132Z,4.43
2018-11-12T09:54:00.931Z,4.27
2018-11-12T09:56:08.796Z,3.33
2018-11-12T09:58:16.686Z,2.83
2018-11-12T10:00:22.067Z,3.13
2018-11-12T10:02:30.353Z,2.97
2018-11-12T10:04:39.078Z,2.67
2018-11-12T10:06:46.757Z,2.97
2018-11-12T10:08:55.468Z,3.10
2018-11-12T10:11:04.435Z,2.33
2018-11-12T10:13:19.510Z,2.53
2018-11-12T10:15:27.881Z,3.40
2018-11-12T10:17:35.495Z,2.20
2018-11-12T10:19:41.098Z,2.50
2018-11-12T10:21:49.972Z,2.50
2018-11-12T10:23:57.769Z,2.17
2018-11-12T10:26:05.841Z,2.50
2018-11-12T10:28:13.586Z,2.60
2018-11-12T10:30:21.483Z,2.27
2018-11-12T10:32:29.339Z,2.10
2018-11-12T10:34:37.275Z,2.67
2018-11-12T10:36:44.972Z,2.60
2018-11-12T10:38:52.818Z,2.03
2018-11-12T10:41:01.320Z,2.30
2018-11-12T10:43:09.777Z,2.80
2018-11-12T10:45:17.941Z,2.50
2018-11-12T10:47:25.674Z,2.80
2018-11-12T10:49:34.603Z,2.40
2018-11-12T10:51:42.448Z,3.40
2018-11-12T10:53:50.474Z,2.93
2018-11-12T10:55:58.114Z,2.03
2018-11-12T10:58:05.839Z,2.58
2018-11-12T11:00:50.735Z,2.63
2018-11-12T11:03:18.008Z,2.47
2018-11-12T11:05:28.195Z,2.60
2018-11-12T11:07:36.219Z,2.20
2018-11-12T11:09:43.997Z,2.30
2018-11-12T11:11:51.775Z,2.20
2018-11-12T11:13:59.631Z,2.40
2018-11-12T11:16:07.815Z,2.90
2018-11-12T11:18:15.530Z,2.53
2018-11-12T11:20:23.268Z,2.47
2018-11-12T11:22:31.044Z,2.47
2018-11-12T11:24:38.744Z,2.20
2018-11-12T11:26:46.542Z,4.83
2018-11-12T11:28:54.230Z,6.90
2018-11-12T11:31:02.066Z,9.38
2018-11-12T11:33:10.187Z,15.03
2018-11-12T11:35:19.022Z,16.13
2018-11-12T11:37:27.533Z,17.30
2018-11-12T11:39:35.812Z,16.83
2018-11-12T11:41:43.568Z,8.40
2018-11-12T11:43:51.337Z,7.00
2018-11-12T11:45:59.056Z,6.27
2018-11-12T11:48:07.000Z,5.00
2018-11-12T11:50:18.067Z,3.50
2018-11-12T11:52:25.672Z,3.60
2018-11-12T11:54:33.580Z,2.97
2018-11-12T11:56:41.466Z,3.07
2018-11-12T11:58:50.298Z,2.87
2018-11-12T12:00:58.232Z,1.93
2018-11-12T12:03:03.258Z,2.00
2018-11-12T12:05:12.722Z,2.20
2018-11-12T12:07:20.808Z,1.70
2018-11-12T12:09:28.557Z,2.20
2018-11-12T12:11:36.260Z,3.27
2018-11-12T12:13:43.937Z,2.40
2018-11-12T12:15:51.696Z,2.97
2018-11-12T12:17:59.428Z,2.77
2018-11-12T12:20:12.945Z,2.33
2018-11-12T12:22:20.664Z,2.53
2018-11-12T12:24:28.484Z,2.50
2018-11-12T12:26:36.632Z,2.33
2018-11-12T12:28:44.694Z,2.60
2018-11-12T12:30:52.663Z,2.53
2018-11-12T12:33:00.401Z,2.43
2018-11-12T12:35:10.868Z,2.20
2018-11-12T12:37:18.651Z,2.20
2018-11-12T12:39:26.408Z,2.70
2018-11-12T12:41:34.129Z,2.60
2018-11-12T12:43:42.205Z,2.53
2018-11-12T12:45:50.604Z,2.42
2018-11-12T12:47:58.663Z,2.33
2018-11-12T12:50:07.659Z,2.22
2018-11-12T12:52:15.367Z,2.17
2018-11-12T12:54:23.113Z,2.50
2018-11-12T12:56:30.970Z,2.10
2018-11-12T12:58:38.566Z,2.33
2018-11-12T13:00:46.272Z,2.20
2018-11-12T13:02:54.530Z,2.23
2018-11-12T13:05:03.569Z,2.20
2018-11-12T13:07:11.713Z,2.30
2018-11-12T13:09:19.509Z,2.30
2018-11-12T13:11:27.258Z,2.37
2018-11-12T13:13:35.025Z,2.00
2018-11-12T13:15:42.756Z,1.70
2018-11-12T13:17:51.168Z,2.70
2018-11-12T13:19:58.893Z,2.37
2018-11-12T13:22:06.859Z,2.20
2018-11-12T13:24:15.079Z,2.03
2018-11-12T13:26:22.846Z,2.10
2018-11-12T13:28:30.724Z,2.10
2018-11-12T13:30:38.449Z,2.30
2018-11-12T13:32:46.789Z,2.07
2018-11-12T13:34:54.532Z,1.95
2018-11-12T13:37:02.277Z,2.42
2018-11-12T13:39:13.796Z,2.33
2018-11-12T13:41:21.607Z,2.23
2018-11-12T13:43:30.108Z,2.00
2018-11-12T13:45:37.910Z,2.50
2018-11-12T13:47:45.940Z,1.87
2018-11-12T13:49:57.620Z,2.30
2018-11-12T13:52:08.599Z,2.03
2018-11-12T13:54:16.467Z,2.10
2018-11-12T13:56:24.177Z,2.37
2018-11-12T13:58:31.978Z,2.00
2018-11-12T14:00:40.123Z,2.00
2018-11-12T14:02:49.313Z,2.73
2018-11-12T14:04:57.451Z,2.33
2018-11-12T14:07:03.797Z,2.17
2018-11-12T14:09:14.484Z,1.90
2018-11-12T14:11:23.365Z,2.10
2018-11-12T14:13:31.415Z,2.50
2018-11-12T14:15:39.662Z,2.90
2018-11-12T14:17:48.582Z,2.40
2018-11-12T14:19:56.368Z,2.30
2018-11-12T14:22:04.551Z,2.10
2018-11-12T14:24:12.319Z,2.23
2018-11-12T14:26:20.556Z,2.23
2018-11-12T14:31:13.982Z,2.37
2018-11-12T14:33:21.764Z,1.90
2018-11-12T14:35:30.050Z,2.23
2018-11-12T14:37:38.212Z,2.40
2018-11-12T14:39:46.049Z,2.10
2018-11-12T14:41:54.419Z,2.20
2018-11-12T14:44:02.295Z,2.60
2018-11-12T14:46:10.279Z,2.30
2018-11-12T14:48:17.980Z,2.90
2018-11-12T14:50:25.754Z,2.50
2018-11-12T14:52:33.478Z,1.83
2018-11-12T14:54:41.555Z,2.37
2018-11-12T14:56:49.308Z,1.90
2018-11-12T14:58:57.023Z,2.40
2018-11-12T15:01:04.782Z,2.00
2018-11-12T15:03:12.591Z,2.10
2018-11-12T15:05:21.573Z,1.87
2018-11-12T15:07:30.445Z,2.30
2018-11-12T15:09:38.256Z,2.57
2018-11-12T15:11:46.709Z,2.50
2018-11-12T15:13:54.537Z,2.63
2018-11-12T15:16:02.510Z,3.00
2018-11-12T15:18:13.682Z,4.13
2018-11-12T15:20:21.830Z,3.40
2018-11-12T15:22:30.000Z,2.90
2018-11-12T15:24:40.261Z,2.30
2018-11-12T15:26:48.100Z,2.97
2018-11-12T15:31:42.663Z,2.30
2018-11-12T15:33:50.892Z,2.37
2018-11-12T15:35:59.686Z,1.90
2018-11-12T15:38:07.788Z,2.40
2018-11-12T15:40:16.032Z,2.47
2018-11-12T15:42:23.818Z,2.03
2018-11-12T15:44:31.624Z,1.87
2018-11-12T15:46:39.419Z,2.23
2018-11-12T15:48:47.181Z,1.87
2018-11-12T15:50:55.373Z,1.80
2018-11-12T15:53:05.277Z,2.37
2018-11-12T15:55:15.828Z,1.90
2018-11-12T15:57:22.151Z,2.40
2018-11-12T15:59:30.521Z,2.33
2018-11-12T16:01:41.101Z,1.93
2018-11-12T16:03:49.304Z,3.30
2018-11-12T16:05:57.102Z,2.23
2018-11-12T16:08:06.040Z,2.50
2018-11-12T16:10:16.644Z,2.10
2018-11-12T16:12:24.432Z,2.20
2018-11-12T16:14:35.007Z,2.17
2018-11-12T16:16:42.792Z,2.67
2018-11-12T16:18:51.096Z,2.57
2018-11-12T16:20:58.978Z,2.23
2018-11-12T16:23:10.519Z,2.43
2018-11-12T16:25:18.961Z,3.17
2018-11-12T16:27:26.755Z,2.93
2018-11-12T16:29:34.715Z,2.90
2018-11-12T16:31:42.745Z,2.80
2018-11-12T16:33:51.279Z,2.42
2018-11-12T16:35:59.025Z,3.03
2018-11-12T16:38:07.595Z,2.00
2018-11-12T16:40:16.125Z,2.37
2018-11-12T16:42:23.869Z,2.50
2018-11-12T16:44:31.975Z,2.00
2018-11-12T16:46:39.786Z,2.50
2018-11-12T16:48:47.733Z,2.10
2018-11-12T16:50:55.599Z,2.22
2018-11-12T16:53:03.430Z,3.10
2018-11-12T16:55:22.510Z,2.80
2018-11-12T16:57:31.561Z,2.57
2018-11-12T16:59:40.600Z,4.40
2018-11-12T17:01:50.509Z,5.60
2018-11-12T17:03:58.295Z,3.23
2018-11-12T17:08:52.317Z,3.03
2018-11-12T17:11:01.183Z,2.20
2018-11-12T17:13:08.962Z,2.93
2018-11-12T17:15:16.922Z,4.87
2018-11-12T17:17:25.029Z,4.67
2018-11-12T17:19:32.898Z,5.50
2018-11-12T17:21:40.815Z,5.07
2018-11-12T17:23:48.596Z,6.20
2018-11-12T17:25:56.441Z,5.47
2018-11-12T17:28:04.228Z,4.03
2018-11-12T17:30:14.954Z,4.63
2018-11-12T17:32:23.143Z,3.37
2018-11-12T17:34:31.353Z,3.27
2018-11-12T17:36:39.239Z,3.40
2018-11-12T17:38:47.001Z,3.07
2018-11-12T17:40:54.795Z,3.50
2018-11-12T17:45:48.035Z,2.90
2018-11-12T17:47:56.695Z,2.67
2018-11-12T17:50:05.372Z,3.13
2018-11-12T17:52:17.443Z,2.70
2018-11-12T17:54:25.488Z,3.50
2018-11-12T17:56:34.387Z,3.00
2018-11-12T17:58:42.431Z,2.47
2018-11-12T18:00:51.363Z,3.38
2018-11-12T18:02:59.724Z,3.20
2018-11-12T18:05:08.978Z,3.10
2018-11-12T18:07:16.944Z,2.70
2018-11-12T18:09:22.885Z,2.90
2018-11-12T18:11:30.767Z,3.50
2018-11-12T18:13:38.994Z,3.13
2018-11-12T18:15:46.891Z,6.23
2018-11-12T18:17:57.965Z,7.40
2018-11-12T18:20:07.063Z,7.17
2018-11-12T18:22:14.806Z,6.30
2018-11-12T18:24:22.659Z,4.70
2018-11-12T18:26:30.440Z,5.00
2018-11-12T18:28:38.269Z,5.73
2018-11-12T18:30:46.433Z,4.97
2018-11-12T18:32:55.843Z,5.37
2018-11-12T18:35:03.985Z,5.20
2018-11-12T18:37:12.126Z,4.30
2018-11-12T18:39:20.065Z,5.53
2018-11-12T18:41:27.901Z,4.80
2018-11-12T18:43:35.873Z,5.10
2018-11-12T18:45:43.667Z,5.63
2018-11-12T18:47:51.907Z,5.60
2018-11-12T18:49:59.859Z,6.57
2018-11-12T18:52:08.840Z,5.60
2018-11-12T18:54:16.604Z,5.37
2018-11-12T18:56:24.795Z,5.17
2018-11-12T18:58:32.596Z,5.50
2018-11-12T19:00:40.498Z,5.40
2018-11-12T19:02:48.649Z,4.77
2018-11-12T19:04:56.692Z,5.05
2018-11-12T19:07:04.535Z,4.80
2018-11-12T19:09:12.890Z,4.90
2018-11-12T19:11:21.177Z,5.50
2018-11-12T19:13:29.389Z,5.03
2018-11-12T19:15:38.476Z,5.00
2018-11-12T19:17:47.375Z,4.90
2018-11-12T19:19:55.165Z,4.73
2018-11-12T19:22:03.011Z,8.33
2018-11-12T19:24:11.050Z,21.40
2018-11-12T19:26:19.033Z,15.63
2018-11-12T19:28:27.716Z,9.60
2018-11-12T19:30:35.804Z,9.03
2018-11-12T19:32:43.626Z,8.40
2018-11-12T19:34:52.048Z,8.43
2018-11-12T19:36:59.941Z,7.78
2018-11-12T19:39:09.894Z,9.00
2018-11-12T19:41:40.349Z,9.53
2018-11-12T19:43:49.230Z,9.17
2018-11-12T19:46:06.767Z,11.20
2018-11-12T19:48:14.763Z,12.57
2018-11-12T19:50:42.862Z,13.03
2018-11-12T19:52:48.538Z,12.50
2018-11-12T19:54:56.372Z,13.20
2018-11-12T19:57:04.380Z,12.73
2018-11-12T19:59:12.406Z,13.13
2018-11-12T20:01:20.320Z,11.33
2018-11-12T20:03:28.177Z,12.40
2018-11-12T20:05:36.051Z,10.67
2018-11-12T20:07:44.880Z,9.47
2018-11-12T20:09:52.699Z,11.90
2018-11-12T20:12:01.028Z,10.97
2018-11-12T20:14:08.903Z,10.47
2018-11-12T20:16:16.782Z,9.47
2018-11-12T20:18:26.979Z,10.20
2018-11-12T20:20:33.644Z,11.10
2018-11-12T20:22:41.473Z,9.87
2018-11-12T20:24:49.437Z,9.20
2018-11-12T20:26:57.247Z,9.60
2018-11-12T20:29:05.410Z,9.60
2018-11-12T20:31:13.289Z,10.27
2018-11-12T20:33:21.198Z,9.80
2018-11-12T20:35:30.044Z,7.67
2018-11-12T20:37:38.013Z,7.70
2018-11-12T20:39:45.885Z,9.80
2018-11-12T20:41:53.743Z,8.00
2018-11-12T20:44:01.918Z,9.37
2018-11-12T20:46:10.084Z,10.07
2018-11-12T20:48:18.674Z,12.67
2018-11-12T20:50:26.450Z,13.80
2018-11-12T20:52:34.435Z,13.77
2018-11-12T20:54:42.282Z,10.40
2018-11-12T20:56:50.223Z,9.50
2018-11-12T20:58:58.177Z,13.10
2018-11-12T21:01:06.267Z,11.80
2018-11-12T21:03:14.122Z,12.90
2018-11-12T21:05:23.939Z,14.20
2018-11-12T21:07:32.063Z,13.30
2018-11-12T21:09:39.972Z,14.33
2018-11-12T21:11:50.668Z,12.53
2018-11-12T21:17:17.769Z,12.33
2018-11-12T21:19:39.941Z,14.50
2018-11-12T21:22:00.246Z,12.07
2018-11-12T21:24:32.464Z,12.90
2018-11-12T21:26:44.907Z,11.93
2018-11-12T21:29:02.033Z,12.73
2018-11-12T21:31:13.698Z,12.05
2018-11-12T21:34:16.515Z,12.77
2018-11-12T21:36:45.941Z,13.23
2018-11-12T21:38:53.962Z,11.88
2018-11-12T21:41:01.842Z,12.03
2018-11-12T21:43:09.767Z,13.77
2018-11-12T21:45:19.189Z,11.60
2018-11-12T21:50:41.071Z,7.10
2018-11-12T21:53:05.408Z,6.80
2018-11-12T21:56:07.648Z,6.70
2018-11-12T21:58:18.981Z,7.00
2018-11-12T22:00:54.333Z,6.80
2018-11-12T22:03:04.260Z,6.97
2018-11-12T22:05:22.841Z,7.10
2018-11-12T22:07:59.348Z,7.40
2018-11-12T22:10:46.469Z,6.80
2018-11-12T22:13:18.885Z,6.67
2018-11-12T22:15:27.121Z,7.10
2018-11-12T22:17:35.035Z,8.10
2018-11-12T22:19:43.103Z,7.07
2018-11-12T22:21:52.102Z,8.10
2018-11-12T22:23:59.993Z,7.90
2018-11-12T22:26:30.416Z,7.80
2018-11-12T22:29:12.987Z,9.07
2018-11-12T22:32:00.377Z,10.43
2018-11-12T22:34:36.004Z,9.67
2018-11-12T22:36:59.252Z,8.83
2018-11-12T22:39:38.065Z,10.67
2018-11-12T22:41:47.391Z,10.47
2018-11-12T22:43:55.203Z,11.00
2018-11-12T22:46:03.387Z,12.80
2018-11-12T22:48:11.302Z,11.80
2018-11-12T22:50:19.292Z,9.63
2018-11-12T22:52:27.381Z,9.65
2018-11-12T22:54:48.855Z,8.87
2018-11-12T22:56:56.603Z,9.45
2018-11-12T22:59:09.247Z,9.53
2018-11-12T23:01:17.310Z,9.37
2018-11-12T23:03:26.361Z,10.35
2018-11-12T23:05:34.275Z,11.47
2018-11-12T23:07:42.079Z,11.47
2018-11-12T23:10:27.382Z,10.33
2018-11-12T23:12:32.723Z,10.83
2018-11-12T23:14:40.506Z,11.73
2018-11-12T23:22:22.656Z,10.00
2018-11-12T23:24:30.579Z,9.70
2018-11-12T23:26:38.804Z,9.83
2018-11-12T23:28:46.949Z,8.60
2018-11-12T23:30:54.732Z,9.10
2018-11-12T23:33:34.381Z,7.50
2018-11-12T23:35:48.593Z,6.90
2018-11-12T23:38:23.668Z,7.43
2018-11-12T23:41:03.136Z,7.65
2018-11-12T23:43:09.921Z,7.00
2018-11-12T23:45:17.807Z,7.13
2018-11-12T23:47:25.633Z,6.70
2018-11-12T23:49:33.404Z,6.63
2018-11-12T23:51:41.757Z,7.47
2018-11-12T23:53:49.609Z,7.03
2018-11-12T23:55:57.461Z,11.00
2018-11-12T23:58:05.233Z,9.63
